createdAt,value
2023-01-18T00:00:37.739Z,52.57
2023-01-18T00:03:05.919Z,52.60
2023-01-18T00:05:35.274Z,53.50
2023-01-18T00:08:03.359Z,53.47
2023-01-18T00:10:31.442Z,54.27
2023-01-18T00:13:00.855Z,52.47
2023-01-18T00:15:28.960Z,53.10
2023-01-18T00:17:57.129Z,53.77
2023-01-18T00:20:27.401Z,53.37
2023-01-18T00:22:55.980Z,53.47
2023-01-18T00:25:25.512Z,54.50
2023-01-18T00:27:55.062Z,58.83
2023-01-18T00:30:26.688Z,59.53
2023-01-18T00:32:57.060Z,59.27
2023-01-18T00:35:25.951Z,60.10
2023-01-18T00:37:54.716Z,59.00
2023-01-18T00:40:23.852Z,57.80
2023-01-18T00:43:09.191Z,56.27
2023-01-18T00:45:38.696Z,54.77
2023-01-18T00:48:07.331Z,54.07
2023-01-18T00:50:35.483Z,53.90
2023-01-18T00:53:03.568Z,55.07
2023-01-18T00:55:31.629Z,53.77
2023-01-18T00:57:59.752Z,53.67
2023-01-18T01:00:27.834Z,56.97
2023-01-18T01:02:58.515Z,53.27
2023-01-18T01:05:46.157Z,52.83
2023-01-18T01:08:17.830Z,52.90
2023-01-18T01:10:47.258Z,55.33
2023-01-18T01:13:34.769Z,56.10
2023-01-18T01:16:23.978Z,54.33
2023-01-18T01:19:11.693Z,53.30
2023-01-18T01:21:57.558Z,55.20
2023-01-18T01:24:43.792Z,54.10
2023-01-18T01:27:12.593Z,53.07
2023-01-18T01:29:40.968Z,53.73
2023-01-18T01:32:09.217Z,54.30
2023-01-18T01:34:38.703Z,54.80
2023-01-18T01:37:07.276Z,57.73
2023-01-18T01:39:35.376Z,60.70
2023-01-18T01:42:03.490Z,62.13
2023-01-18T01:44:55.628Z,64.97
2023-01-18T01:47:29.346Z,66.70
2023-01-18T01:50:02.977Z,69.20
2023-01-18T01:52:34.209Z,69.23
2023-01-18T01:55:08.003Z,70.67
2023-01-18T01:57:38.923Z,70.07
2023-01-18T02:00:10.650Z,72.67
2023-01-18T02:02:39.641Z,75.50
2023-01-18T02:05:13.993Z,73.73
2023-01-18T02:07:42.606Z,74.13
2023-01-18T02:10:12.199Z,73.10
2023-01-18T02:12:42.271Z,73.30
2023-01-18T02:15:11.612Z,75.07
2023-01-18T02:18:07.971Z,74.03
2023-01-18T02:21:09.469Z,75.67
2023-01-18T02:24:15.294Z,75.00
2023-01-18T02:27:00.315Z,78.40
2023-01-18T02:29:45.626Z,78.60
2023-01-18T02:32:25.094Z,78.00
2023-01-18T02:34:58.523Z,78.57
2023-01-18T02:37:37.952Z,76.60
2023-01-18T02:40:16.943Z,80.43
2023-01-18T02:43:03.922Z,79.97
2023-01-18T02:45:53.163Z,79.87
2023-01-18T02:48:24.007Z,82.60
2023-01-18T02:50:52.865Z,82.00
2023-01-18T02:53:20.936Z,82.90
2023-01-18T02:55:54.846Z,83.07
2023-01-18T02:58:28.412Z,82.63
2023-01-18T03:01:03.890Z,84.77
2023-01-18T03:03:32.165Z,86.60
2023-01-18T03:06:02.351Z,85.57
2023-01-18T03:08:36.474Z,86.50
2023-01-18T03:11:09.043Z,88.83
2023-01-18T03:14:00.673Z,89.67
2023-01-18T03:16:40.098Z,88.50
2023-01-18T03:19:32.347Z,89.70
2023-01-18T03:22:01.812Z,89.90
2023-01-18T03:24:31.172Z,90.70
2023-01-18T03:27:17.804Z,90.73
2023-01-18T03:30:05.265Z,91.73
2023-01-18T03:32:52.962Z,95.30
2023-01-18T03:35:27.316Z,95.70
2023-01-18T03:37:57.464Z,95.30
2023-01-18T03:40:29.364Z,95.60
2023-01-18T03:43:04.507Z,95.30
2023-01-18T03:45:37.524Z,94.70
2023-01-18T03:48:09.954Z,97.40
2023-01-18T03:50:46.917Z,96.17
2023-01-18T03:53:20.543Z,96.07
2023-01-18T03:55:53.935Z,95.27
2023-01-18T03:58:29.658Z,94.10
2023-01-18T04:00:57.854Z,96.67
2023-01-18T04:03:27.369Z,97.30
2023-01-18T04:05:55.562Z,96.33
2023-01-18T04:08:23.720Z,95.73
2023-01-18T04:10:51.837Z,95.70
2023-01-18T04:13:20.063Z,98.07
2023-01-18T04:15:48.164Z,97.00
2023-01-18T04:18:16.600Z,98.37
2023-01-18T04:20:46.020Z,104.83
2023-01-18T04:23:14.117Z,99.73
2023-01-18T04:25:50.001Z,101.63
2023-01-18T04:28:25.251Z,102.20
2023-01-18T04:30:54.274Z,101.97
2023-01-18T04:33:23.326Z,101.67
2023-01-18T04:35:54.302Z,102.27
2023-01-18T04:38:22.523Z,101.17
2023-01-18T04:40:51.052Z,102.33
2023-01-18T04:43:19.409Z,105.10
2023-01-18T04:45:54.661Z,109.93
2023-01-18T04:48:22.936Z,104.63
2023-01-18T04:50:52.453Z,108.00
2023-01-18T04:53:21.234Z,106.03
2023-01-18T04:55:49.608Z,105.47
2023-01-18T04:58:17.895Z,104.00
2023-01-18T05:00:46.195Z,102.37
2023-01-18T05:03:14.423Z,104.97
2023-01-18T05:05:42.607Z,100.70
2023-01-18T05:08:12.141Z,101.47
2023-01-18T05:10:40.214Z,101.80
2023-01-18T05:13:08.353Z,102.27
2023-01-18T05:15:36.474Z,105.73
2023-01-18T05:18:05.546Z,105.27
2023-01-18T05:20:33.589Z,104.17
2023-01-18T05:23:10.556Z,104.20
2023-01-18T05:25:40.562Z,104.20
2023-01-18T05:28:09.555Z,107.30
2023-01-18T05:30:41.250Z,111.37
2023-01-18T05:33:10.201Z,101.33
2023-01-18T05:35:38.339Z,99.20
2023-01-18T05:38:06.514Z,98.60
2023-01-18T05:40:34.580Z,98.47
2023-01-18T05:43:04.009Z,98.43
2023-01-18T05:45:32.150Z,98.13
2023-01-18T05:48:00.408Z,96.53
2023-01-18T05:50:28.635Z,97.93
2023-01-18T05:52:58.732Z,97.80
2023-01-18T05:55:27.794Z,97.43
2023-01-18T05:57:55.970Z,97.13
2023-01-18T06:00:25.798Z,100.33
2023-01-18T06:02:54.466Z,100.97
2023-01-18T06:05:23.163Z,99.43
2023-01-18T06:07:51.287Z,97.70
2023-01-18T06:10:19.966Z,99.00
2023-01-18T06:12:48.269Z,101.70
2023-01-18T06:15:17.169Z,98.87
2023-01-18T06:17:47.389Z,99.53
2023-01-18T06:20:17.146Z,101.23
2023-01-18T06:22:46.643Z,102.97
2023-01-18T06:25:14.796Z,104.30
2023-01-18T06:27:43.121Z,103.90
2023-01-18T06:30:12.208Z,100.50
2023-01-18T06:32:40.288Z,96.63
2023-01-18T06:35:10.095Z,101.83
2023-01-18T06:37:38.179Z,97.10
2023-01-18T06:40:07.599Z,96.57
2023-01-18T06:42:35.698Z,97.57
2023-01-18T06:45:04.070Z,97.47
2023-01-18T06:47:32.291Z,101.83
2023-01-18T06:50:00.352Z,96.93
2023-01-18T06:52:29.818Z,100.20
2023-01-18T06:54:57.984Z,98.10
2023-01-18T06:57:26.172Z,100.17
2023-01-18T06:59:55.009Z,97.17
2023-01-18T07:02:23.111Z,97.97
2023-01-18T07:04:51.274Z,101.75
2023-01-18T07:07:19.492Z,99.50
2023-01-18T07:09:49.069Z,99.27
2023-01-18T07:12:17.543Z,101.70
2023-01-18T07:14:45.740Z,102.47
2023-01-18T07:17:13.951Z,101.07
2023-01-18T07:19:42.221Z,103.72
2023-01-18T07:22:10.447Z,102.50
2023-01-18T07:24:38.644Z,99.63
2023-01-18T07:27:08.183Z,95.90
2023-01-18T07:29:36.412Z,103.37
2023-01-18T07:32:04.907Z,100.80
2023-01-18T07:34:33.064Z,100.57
2023-01-18T07:37:01.394Z,101.50
2023-01-18T07:39:29.772Z,100.50
2023-01-18T07:41:57.916Z,95.50
2023-01-18T07:44:27.603Z,92.30
2023-01-18T07:46:55.787Z,96.00
2023-01-18T07:49:23.989Z,93.27
2023-01-18T07:51:52.121Z,95.37
2023-01-18T07:54:20.284Z,97.47
2023-01-18T07:56:48.320Z,98.77
2023-01-18T07:59:17.263Z,94.13
2023-01-18T08:01:46.878Z,96.73
2023-01-18T08:04:15.085Z,96.93
2023-01-18T08:06:43.224Z,96.07
2023-01-18T08:09:11.421Z,98.37
2023-01-18T08:11:39.658Z,98.20
2023-01-18T08:14:07.759Z,101.43
2023-01-18T08:16:35.960Z,96.70
2023-01-18T08:19:05.418Z,96.83
2023-01-18T08:21:33.627Z,96.53
2023-01-18T08:24:01.785Z,96.47
2023-01-18T08:26:30.053Z,97.63
2023-01-18T08:28:59.068Z,98.13
2023-01-18T08:31:27.515Z,98.30
2023-01-18T08:33:55.739Z,96.90
2023-01-18T08:36:26.925Z,95.27
2023-01-18T08:38:57.219Z,93.47
2023-01-18T08:41:28.423Z,90.50
2023-01-18T08:43:57.378Z,97.57
2023-01-18T08:46:26.997Z,94.33
2023-01-18T08:48:56.971Z,95.30
2023-01-18T08:51:26.933Z,93.73
2023-01-18T08:53:57.283Z,90.10
2023-01-18T08:56:26.627Z,92.93
2023-01-18T08:58:55.072Z,89.03
2023-01-18T09:01:24.799Z,96.13
2023-01-18T09:03:55.738Z,94.77
2023-01-18T09:06:23.955Z,96.97
2023-01-18T09:08:53.643Z,96.23
2023-01-18T09:11:22.730Z,91.43
2023-01-18T09:14:00.646Z,90.03
2023-01-18T09:16:30.333Z,98.30
2023-01-18T09:19:00.227Z,93.60
2023-01-18T09:21:29.698Z,98.20
2023-01-18T09:24:00.043Z,96.03
2023-01-18T09:26:30.866Z,95.40
2023-01-18T09:29:00.159Z,94.80
2023-01-18T09:31:30.998Z,96.03
2023-01-18T09:34:18.040Z,94.23
2023-01-18T09:36:51.893Z,93.53
2023-01-18T09:39:23.151Z,95.37
2023-01-18T09:41:54.849Z,93.20
2023-01-18T09:44:30.470Z,83.23
2023-01-18T09:47:04.997Z,90.30
2023-01-18T09:49:39.121Z,92.17
2023-01-18T09:52:21.284Z,91.40
2023-01-18T09:54:59.191Z,89.00
2023-01-18T09:57:44.937Z,88.77
2023-01-18T10:00:22.146Z,82.07
2023-01-18T10:02:55.743Z,90.20
2023-01-18T10:05:27.169Z,80.63
2023-01-18T10:08:04.124Z,77.50
2023-01-18T10:10:40.411Z,83.93
2023-01-18T10:13:33.923Z,83.87
2023-01-18T10:16:03.670Z,83.37
2023-01-18T10:18:32.757Z,82.80
2023-01-18T10:21:06.169Z,83.27
2023-01-18T10:23:42.128Z,83.30
2023-01-18T10:26:19.247Z,79.63
2023-01-18T10:28:53.662Z,76.83
2023-01-18T10:31:37.501Z,77.43
2023-01-18T10:34:15.721Z,75.30
2023-01-18T10:36:47.160Z,75.70
2023-01-18T10:39:28.840Z,74.37
2023-01-18T10:42:06.114Z,73.73
2023-01-18T10:44:35.337Z,72.90
2023-01-18T10:47:04.076Z,74.07
2023-01-18T10:49:38.593Z,73.80
2023-01-18T10:52:21.431Z,72.47
2023-01-18T10:54:55.998Z,70.60
2023-01-18T10:57:31.200Z,71.50
2023-01-18T11:00:01.091Z,72.20
2023-01-18T11:02:35.084Z,75.40
2023-01-18T11:05:17.982Z,71.47
2023-01-18T11:07:46.129Z,72.60
2023-01-18T11:10:26.011Z,68.63
2023-01-18T11:12:55.693Z,67.23
2023-01-18T11:15:29.244Z,61.57
2023-01-18T11:18:12.048Z,59.77
2023-01-18T11:20:49.957Z,59.80
2023-01-18T11:23:25.488Z,61.63
2023-01-18T11:25:58.200Z,60.90
2023-01-18T11:28:30.864Z,57.83
2023-01-18T11:31:06.340Z,59.63
2023-01-18T11:33:34.590Z,57.20
2023-01-18T11:36:04.527Z,54.20
2023-01-18T11:38:34.806Z,54.80
2023-01-18T11:41:16.249Z,50.13
2023-01-18T11:44:04.728Z,50.40
2023-01-18T11:46:40.087Z,47.47
2023-01-18T11:49:21.516Z,43.60
2023-01-18T11:51:55.607Z,45.70
2023-01-18T11:54:31.659Z,45.23
2023-01-18T11:57:03.068Z,45.00
2023-01-18T11:59:36.179Z,44.83
2023-01-18T12:02:34.239Z,46.53
2023-01-18T12:05:29.045Z,50.00
2023-01-18T12:08:11.645Z,50.97
2023-01-18T12:10:51.018Z,50.17
2023-01-18T12:13:37.083Z,48.40
2023-01-18T12:16:18.712Z,30.90
2023-01-18T12:19:23.333Z,29.57
2023-01-18T12:22:07.708Z,28.83
2023-01-18T12:24:49.606Z,29.70
2023-01-18T12:27:25.979Z,28.90
2023-01-18T12:30:12.242Z,31.47
2023-01-18T12:33:04.690Z,28.30
2023-01-18T12:35:51.824Z,27.57
2023-01-18T12:38:24.079Z,28.10
2023-01-18T12:41:27.973Z,28.90
2023-01-18T12:44:23.187Z,28.70
2023-01-18T12:47:03.959Z,27.97
2023-01-18T12:49:39.392Z,28.77
2023-01-18T12:52:18.593Z,28.97
2023-01-18T12:54:49.971Z,28.63
2023-01-18T12:57:19.714Z,31.13
2023-01-18T12:59:52.765Z,25.37
2023-01-18T13:02:33.216Z,26.37
2023-01-18T13:05:07.410Z,38.80
2023-01-18T13:07:40.345Z,36.77
2023-01-18T13:10:15.537Z,36.77
2023-01-18T13:12:44.859Z,37.30
2023-01-18T13:15:26.955Z,23.77
2023-01-18T13:18:02.747Z,22.47
2023-01-18T13:20:44.823Z,22.83
2023-01-18T13:23:25.431Z,21.77
2023-01-18T13:26:03.177Z,22.10
2023-01-18T13:28:31.380Z,21.70
2023-01-18T13:31:03.211Z,23.07
2023-01-18T13:33:34.457Z,21.50
2023-01-18T13:36:08.159Z,22.30
2023-01-18T13:38:41.945Z,21.60
2023-01-18T13:41:12.693Z,29.00
2023-01-18T13:44:03.845Z,20.10
2023-01-18T13:46:35.241Z,20.70
2023-01-18T13:49:37.598Z,20.33
2023-01-18T13:52:32.475Z,20.07
2023-01-18T13:55:05.645Z,20.10
2023-01-18T13:57:35.831Z,20.83
2023-01-18T14:00:07.410Z,19.97
2023-01-18T14:02:43.443Z,19.17
2023-01-18T14:05:25.349Z,19.30
2023-01-18T14:07:59.209Z,19.90
2023-01-18T14:10:33.302Z,20.93
2023-01-18T14:13:04.090Z,20.40
2023-01-18T14:15:52.436Z,21.07
2023-01-18T14:18:26.148Z,21.53
2023-01-18T14:21:12.968Z,20.73
2023-01-18T14:24:20.889Z,19.80
2023-01-18T14:26:53.837Z,20.83
2023-01-18T14:29:34.261Z,20.60
2023-01-18T14:32:06.649Z,21.00
2023-01-18T14:34:40.382Z,20.57
2023-01-18T14:37:29.652Z,20.60
2023-01-18T14:40:17.375Z,20.90
2023-01-18T14:42:50.401Z,20.33
2023-01-18T14:45:23.429Z,20.40
2023-01-18T14:47:52.684Z,20.87
2023-01-18T14:50:23.210Z,21.27
2023-01-18T14:52:54.033Z,21.37
2023-01-18T14:55:32.233Z,21.00
2023-01-18T14:58:11.448Z,21.80
2023-01-18T15:00:50.913Z,22.90
2023-01-18T15:03:26.382Z,22.63
2023-01-18T15:06:02.935Z,33.15
2023-01-18T15:08:35.156Z,24.50
2023-01-18T15:11:06.267Z,24.10
2023-01-18T15:13:42.000Z,23.30
2023-01-18T15:16:11.075Z,25.10
2023-01-18T15:18:42.133Z,24.07
2023-01-18T15:21:18.192Z,24.47
2023-01-18T15:23:47.195Z,25.40
2023-01-18T15:26:17.155Z,26.20
2023-01-18T15:28:46.031Z,25.90
2023-01-18T15:31:15.897Z,25.40
2023-01-18T15:33:46.682Z,25.47
2023-01-18T15:36:16.541Z,25.57
2023-01-18T15:38:45.751Z,25.50
2023-01-18T15:41:18.120Z,24.43
2023-01-18T15:43:48.993Z,23.83
2023-01-18T15:46:18.404Z,24.77
2023-01-18T15:48:50.220Z,24.13
2023-01-18T15:51:22.399Z,24.40
2023-01-18T15:53:56.257Z,25.27
2023-01-18T15:56:29.894Z,25.50
2023-01-18T15:59:01.388Z,25.40
2023-01-18T16:01:31.978Z,25.17
2023-01-18T16:04:04.178Z,24.37
2023-01-18T16:06:34.580Z,26.80
2023-01-18T16:09:10.497Z,26.70
2023-01-18T16:11:51.819Z,27.27
2023-01-18T16:14:23.700Z,27.70
2023-01-18T16:16:53.362Z,27.30
2023-01-18T16:19:28.469Z,27.80
2023-01-18T16:21:59.929Z,27.70
2023-01-18T16:24:35.253Z,26.83
2023-01-18T16:27:12.021Z,26.47
2023-01-18T16:29:46.963Z,27.47
2023-01-18T16:32:31.080Z,27.00
2023-01-18T16:35:01.010Z,27.10
2023-01-18T16:37:30.649Z,27.60
2023-01-18T16:39:58.785Z,27.17
2023-01-18T16:42:37.648Z,28.70
2023-01-18T16:45:13.387Z,28.33
2023-01-18T16:47:41.473Z,28.77
2023-01-18T16:50:15.372Z,30.30
2023-01-18T16:52:43.501Z,30.10
2023-01-18T16:55:13.619Z,30.53
2023-01-18T16:57:43.919Z,30.80
2023-01-18T17:00:18.201Z,31.07
2023-01-18T17:02:46.784Z,33.97
2023-01-18T17:05:15.814Z,34.97
2023-01-18T17:07:44.207Z,36.77
2023-01-18T17:10:21.027Z,35.73
2023-01-18T17:12:50.463Z,35.50
2023-01-18T17:15:20.103Z,34.57
2023-01-18T17:17:48.472Z,34.23
2023-01-18T17:20:19.184Z,34.00
2023-01-18T17:22:47.334Z,34.57
2023-01-18T17:25:16.297Z,35.40
2023-01-18T17:27:44.517Z,35.20
2023-01-18T17:30:15.979Z,33.90
2023-01-18T17:32:45.773Z,34.90
2023-01-18T17:35:14.924Z,33.33
2023-01-18T17:37:43.042Z,32.27
2023-01-18T17:40:19.583Z,32.57
2023-01-18T17:42:53.758Z,32.03
2023-01-18T17:45:23.273Z,31.07
2023-01-18T17:47:53.651Z,27.97
2023-01-18T17:50:24.909Z,28.83
2023-01-18T17:52:54.195Z,30.00
2023-01-18T17:55:27.388Z,28.50
2023-01-18T17:57:58.834Z,28.20
2023-01-18T18:00:28.359Z,27.57
2023-01-18T18:02:57.462Z,28.67
2023-01-18T18:05:26.225Z,29.70
2023-01-18T18:07:54.336Z,30.07
2023-01-18T18:10:22.426Z,28.90
2023-01-18T18:12:50.476Z,29.70
2023-01-18T18:15:22.301Z,29.10
2023-01-18T18:17:52.158Z,28.90
2023-01-18T18:20:22.093Z,28.90
2023-01-18T18:22:51.312Z,27.90
2023-01-18T18:25:19.520Z,27.37
2023-01-18T18:27:47.811Z,29.37
2023-01-18T18:30:17.644Z,29.93
2023-01-18T18:32:45.735Z,28.37
2023-01-18T18:35:24.849Z,30.00
2023-01-18T18:37:55.403Z,29.50
2023-01-18T18:40:24.057Z,31.70
2023-01-18T18:43:01.997Z,33.50
2023-01-18T18:45:32.147Z,35.13
2023-01-18T18:48:00.641Z,38.50
2023-01-18T18:50:31.482Z,39.93
2023-01-18T18:53:00.602Z,40.73
2023-01-18T18:55:29.286Z,38.50
2023-01-18T18:57:57.951Z,39.80
2023-01-18T19:00:27.498Z,42.50
2023-01-18T19:02:59.986Z,42.50
2023-01-18T19:05:30.715Z,44.23
2023-01-18T19:08:00.027Z,45.10
2023-01-18T19:10:30.589Z,46.40
2023-01-18T19:12:59.927Z,47.63
2023-01-18T19:15:29.111Z,48.70
2023-01-18T19:17:59.067Z,48.23
2023-01-18T19:20:27.616Z,47.70
2023-01-18T19:22:57.868Z,50.53
2023-01-18T19:25:26.941Z,52.20
2023-01-18T19:27:55.736Z,50.17
2023-01-18T19:30:24.120Z,51.23
2023-01-18T19:32:53.731Z,52.40
2023-01-18T19:35:22.304Z,51.57
2023-01-18T19:37:50.836Z,53.97
2023-01-18T19:40:21.763Z,51.63
2023-01-18T19:42:55.847Z,51.53
2023-01-18T19:45:28.112Z,51.23
2023-01-18T19:47:58.812Z,52.43
2023-01-18T19:50:28.200Z,52.27
2023-01-18T19:52:56.951Z,53.67
2023-01-18T19:55:26.645Z,54.23
2023-01-18T19:57:57.840Z,56.50
2023-01-18T20:00:26.803Z,56.43
2023-01-18T20:02:55.233Z,55.07
2023-01-18T20:05:24.064Z,55.30
2023-01-18T20:07:52.715Z,58.27
2023-01-18T20:10:21.146Z,57.63
2023-01-18T20:12:51.364Z,56.77
2023-01-18T20:15:21.305Z,57.57
2023-01-18T20:17:50.676Z,56.70
2023-01-18T20:20:31.356Z,58.00
2023-01-18T20:23:02.980Z,56.20
2023-01-18T20:25:32.587Z,56.63
2023-01-18T20:28:02.484Z,59.37
2023-01-18T20:30:30.798Z,58.03
2023-01-18T20:32:59.176Z,56.90
2023-01-18T20:35:27.508Z,57.37
2023-01-18T20:37:55.866Z,60.17
2023-01-18T20:40:24.083Z,60.50
2023-01-18T20:42:52.140Z,60.17
2023-01-18T20:45:21.592Z,59.73
2023-01-18T20:47:49.604Z,62.67
2023-01-18T20:50:18.956Z,60.57
2023-01-18T20:52:47.026Z,61.33
2023-01-18T20:55:16.524Z,59.37
2023-01-18T20:57:44.604Z,61.70
2023-01-18T21:00:14.133Z,65.77
2023-01-18T21:02:43.846Z,64.87
2023-01-18T21:05:12.199Z,62.50
2023-01-18T21:07:41.763Z,64.20
2023-01-18T21:10:11.854Z,63.33
2023-01-18T21:12:41.350Z,64.10
2023-01-18T21:15:10.453Z,64.20
2023-01-18T21:17:39.759Z,64.13
2023-01-18T21:20:11.081Z,66.07
2023-01-18T21:22:39.142Z,63.37
2023-01-18T21:25:08.642Z,65.97
2023-01-18T21:27:36.783Z,67.30
2023-01-18T21:30:05.623Z,66.53
2023-01-18T21:32:33.750Z,68.00
2023-01-18T21:35:01.696Z,65.70
2023-01-18T21:37:31.255Z,66.83
2023-01-18T21:40:00.666Z,68.07
2023-01-18T21:42:46.309Z,68.47
2023-01-18T21:45:32.941Z,67.37
2023-01-18T21:48:01.684Z,67.10
2023-01-18T21:50:47.530Z,64.10
2023-01-18T21:53:34.586Z,65.53
2023-01-18T21:56:02.703Z,67.40
2023-01-18T21:58:48.486Z,66.97
2023-01-18T22:01:18.790Z,66.57
2023-01-18T22:04:04.318Z,68.80
2023-01-18T22:06:32.508Z,69.13
2023-01-18T22:09:02.102Z,68.07
2023-01-18T22:11:30.138Z,69.47
2023-01-18T22:13:58.437Z,67.47
2023-01-18T22:16:30.400Z,66.13
2023-01-18T22:18:59.228Z,68.20
2023-01-18T22:21:29.287Z,69.63
2023-01-18T22:23:57.381Z,71.77
2023-01-18T22:26:29.297Z,73.00
2023-01-18T22:28:58.218Z,73.17
2023-01-18T22:31:27.122Z,76.43
2023-01-18T22:33:57.333Z,75.80
2023-01-18T22:36:25.787Z,78.67
2023-01-18T22:38:54.542Z,74.50
2023-01-18T22:41:24.528Z,76.13
2023-01-18T22:43:55.298Z,80.50
2023-01-18T22:46:24.441Z,79.80
2023-01-18T22:48:52.919Z,80.97
2023-01-18T22:51:23.597Z,78.73
2023-01-18T22:53:52.201Z,78.13
2023-01-18T22:56:22.952Z,75.07
2023-01-18T22:58:51.460Z,75.97
2023-01-18T23:01:24.894Z,76.77
2023-01-18T23:03:54.355Z,75.20
2023-01-18T23:06:22.998Z,75.60
2023-01-18T23:08:52.103Z,78.10
2023-01-18T23:11:22.598Z,76.30
2023-01-18T23:14:10.352Z,74.70
2023-01-18T23:17:11.860Z,73.03
2023-01-18T23:19:40.102Z,72.67
2023-01-18T23:22:08.352Z,75.17
2023-01-18T23:24:37.847Z,76.80
2023-01-18T23:27:08.036Z,76.10
2023-01-18T23:29:36.177Z,72.93
2023-01-18T23:32:06.438Z,73.53
2023-01-18T23:34:34.555Z,74.60
2023-01-18T23:37:02.903Z,67.83
2023-01-18T23:39:48.720Z,78.53
2023-01-18T23:42:33.986Z,69.80
2023-01-18T23:45:19.404Z,71.47
2023-01-18T23:48:06.369Z,79.80
2023-01-18T23:50:51.768Z,76.40
2023-01-18T23:53:37.306Z,73.10
2023-01-18T23:56:05.505Z,65.57
2023-01-18T23:58:33.612Z,68.60
